Terminal Aerodrome Forecast
Issued by NWS

Home | Current Version | Previous Version | Text Only | Print | Product List | Glossary Off
Versions: 1 2 3 4 5 6 7 8 9 10 11 12 13 14

061
FTUS43 KOAX 041726
TAFCDR
TAF
KCDR 041726Z 0418/0518 27008KT P6SM BKN100
     FM050100 27010KT P6SM BKN060
     FM050400 27010KT P6SM VCSH BKN035=

USA.gov is the U.S. government's official web portal to all federal, state and local government web resources and services.